Time,TemperatureF,DewpointF,PressureIn,WindDirection,WindDirectionDegrees,WindSpeedMPH,WindSpeedGustMPH,Humidity,HourlyPrecipIn,Conditions,Clouds,dailyrainin,SolarRadiationWatts/m^2,SoftwareType,DateUTC
2013-06-04 00:02:00,46.0,38.0,-100.00,SSW,212,2.0,6.0,73,0.00,,,0.00,0.000000,,2013-06-04 05:02:00,
2013-06-04 00:22:00,44.0,38.0,-100.00,ESE,105,1.0,4.0,78,0.00,,,0.00,0.000000,,2013-06-04 05:22:00,
2013-06-04 00:32:00,44.0,38.0,-100.00,ESE,105,1.0,4.0,78,0.00,,,0.00,0.000000,,2013-06-04 05:32:00,
2013-06-04 00:42:00,44.0,38.0,-100.00,ESE,105,1.0,4.0,78,0.00,,,0.00,0.000000,,2013-06-04 05:42:00,
2013-06-04 00:52:00,44.0,38.0,-100.00,ESE,105,1.0,4.0,78,0.00,,,0.00,0.000000,,2013-06-04 05:52:00,
2013-06-04 01:02:00,44.0,38.0,-100.00,ESE,105,1.0,4.0,78,0.00,,,0.00,0.000000,,2013-06-04 06:02:00,
2013-06-04 01:22:00,42.0,37.0,-100.00,South,176,2.0,3.0,83,0.00,,,0.00,0.000000,,2013-06-04 06:22:00,
2013-06-04 01:32:00,42.0,37.0,-100.00,South,176,2.0,3.0,83,0.00,,,0.00,0.000000,,2013-06-04 06:32:00,
2013-06-04 01:42:00,42.0,37.0,-100.00,South,176,2.0,3.0,83,0.00,,,0.00,0.000000,,2013-06-04 06:42:00,
2013-06-04 01:52:00,42.0,37.0,-100.00,South,176,2.0,3.0,83,0.00,,,0.00,0.000000,,2013-06-04 06:52:00,
2013-06-04 02:02:00,42.0,37.0,-100.00,South,176,2.0,3.0,83,0.00,,,0.00,0.000000,,2013-06-04 07:02:00,
2013-06-04 02:22:00,39.0,35.0,-100.00,ENE,74,1.0,3.0,86,0.00,,,0.00,0.000000,,2013-06-04 07:22:00,
2013-06-04 02:32:00,39.0,35.0,-100.00,ENE,74,1.0,3.0,86,0.00,,,0.00,0.000000,,2013-06-04 07:32:00,
2013-06-04 02:42:00,39.0,35.0,-100.00,ENE,74,1.0,3.0,86,0.00,,,0.00,0.000000,,2013-06-04 07:42:00,
2013-06-04 02:52:00,39.0,35.0,-100.00,ENE,74,1.0,3.0,86,0.00,,,0.00,0.000000,,2013-06-04 07:52:00,
2013-06-04 03:02:00,39.0,35.0,-100.00,ENE,74,1.0,3.0,86,0.00,,,0.00,0.000000,,2013-06-04 08:02:00,
2013-06-04 03:22:00,38.0,35.0,-100.00,SE,135,1.0,2.0,90,0.00,,,0.00,0.000000,,2013-06-04 08:22:00,
2013-06-04 03:32:00,38.0,35.0,-100.00,SE,135,1.0,2.0,90,0.00,,,0.00,0.000000,,2013-06-04 08:32:00,
2013-06-04 03:42:00,38.0,35.0,-100.00,SE,135,1.0,2.0,90,0.00,,,0.00,0.000000,,2013-06-04 08:42:00,
2013-06-04 03:52:00,38.0,35.0,-100.00,SE,135,1.0,2.0,90,0.00,,,0.00,0.000000,,2013-06-04 08:52:00,
2013-06-04 04:02:00,38.0,35.0,-100.00,SE,135,1.0,2.0,90,0.00,,,0.00,0.000000,,2013-06-04 09:02:00,
2013-06-04 04:22:00,38.0,36.0,-100.00,South,185,0.0,2.0,93,0.00,,,0.00,0.000000,,2013-06-04 09:22:00,
2013-06-04 04:33:00,38.0,36.0,-100.00,South,185,0.0,2.0,93,0.00,,,0.00,0.000000,,2013-06-04 09:33:00,
2013-06-04 04:43:00,38.0,36.0,-100.00,South,185,0.0,2.0,93,0.00,,,0.00,0.000000,,2013-06-04 09:43:00,
2013-06-04 04:53:00,38.0,36.0,-100.00,South,185,0.0,2.0,93,0.00,,,0.00,0.000000,,2013-06-04 09:53:00,
2013-06-04 05:02:00,38.0,36.0,-100.00,South,185,0.0,2.0,93,0.00,,,0.00,0.000000,,2013-06-04 10:02:00,
2013-06-04 05:23:00,39.0,37.0,-100.00,North,8,2.0,4.0,91,0.00,,,0.00,0.000000,,2013-06-04 10:23:00,
2013-06-04 05:33:00,39.0,37.0,-100.00,North,8,2.0,4.0,91,0.00,,,0.00,0.000000,,2013-06-04 10:33:00,
2013-06-04 05:42:00,39.0,37.0,-100.00,North,8,2.0,4.0,91,0.00,,,0.00,0.000000,,2013-06-04 10:42:00,
2013-06-04 05:53:00,39.0,37.0,-100.00,North,8,2.0,4.0,91,0.00,,,0.00,0.000000,,2013-06-04 10:53:00,
2013-06-04 06:02:00,39.0,37.0,-100.00,North,8,2.0,4.0,91,0.00,,,0.00,0.000000,,2013-06-04 11:02:00,
2013-06-04 06:22:00,41.0,39.0,-100.00,North,359,1.0,4.0,91,0.00,,,0.00,10.000000,,2013-06-04 11:22:00,
2013-06-04 06:32:00,41.0,39.0,-100.00,North,359,1.0,4.0,91,0.00,,,0.00,10.000000,,2013-06-04 11:32:00,
2013-06-04 06:43:00,41.0,39.0,-100.00,North,359,1.0,4.0,91,0.00,,,0.00,10.000000,,2013-06-04 11:43:00,
2013-06-04 06:52:00,41.0,39.0,-100.00,North,359,1.0,4.0,91,0.00,,,0.00,10.000000,,2013-06-04 11:52:00,
2013-06-04 07:02:00,41.0,39.0,-100.00,North,359,1.0,4.0,91,0.00,,,0.00,10.000000,,2013-06-04 12:02:00,
2013-06-04 07:22:00,44.0,41.0,-100.00,NE,34,2.0,4.0,90,0.00,,,0.00,30.000000,,2013-06-04 12:22:00,
2013-06-04 07:32:00,44.0,41.0,-100.00,NE,34,2.0,4.0,90,0.00,,,0.00,30.000000,,2013-06-04 12:32:00,
2013-06-04 07:42:00,44.0,41.0,-100.00,NE,34,2.0,4.0,90,0.00,,,0.00,30.000000,,2013-06-04 12:42:00,
2013-06-04 07:53:00,44.0,41.0,-100.00,NE,34,2.0,4.0,90,0.00,,,0.00,30.000000,,2013-06-04 12:53:00,
2013-06-04 08:02:00,44.0,41.0,-100.00,NE,34,2.0,4.0,90,0.00,,,0.00,30.000000,,2013-06-04 13:02:00,
2013-06-04 08:22:00,46.0,40.0,-100.00,NW,310,1.0,4.0,80,0.00,,,0.00,58.000000,,2013-06-04 13:22:00,
2013-06-04 08:32:00,46.0,40.0,-100.00,NW,310,1.0,4.0,80,0.00,,,0.00,58.000000,,2013-06-04 13:32:00,
2013-06-04 08:42:00,46.0,40.0,-100.00,NW,310,1.0,4.0,80,0.00,,,0.00,58.000000,,2013-06-04 13:42:00,
2013-06-04 08:52:00,46.0,40.0,-100.00,NW,310,1.0,4.0,80,0.00,,,0.00,58.000000,,2013-06-04 13:52:00,
2013-06-04 09:02:00,46.0,40.0,-100.00,NW,310,1.0,4.0,80,0.00,,,0.00,58.000000,,2013-06-04 14:02:00,
2013-06-04 09:22:00,49.0,40.0,-100.00,ESE,115,1.0,4.0,72,0.00,,,0.00,105.000000,,2013-06-04 14:22:00,
2013-06-04 09:32:00,49.0,40.0,-100.00,ESE,115,1.0,4.0,72,0.00,,,0.00,105.000000,,2013-06-04 14:32:00,
2013-06-04 09:43:00,49.0,40.0,-100.00,ESE,115,1.0,4.0,72,0.00,,,0.00,105.000000,,2013-06-04 14:43:00,
2013-06-04 09:52:00,49.0,40.0,-100.00,ESE,115,1.0,4.0,72,0.00,,,0.00,105.000000,,2013-06-04 14:52:00,
2013-06-04 10:02:00,49.0,40.0,-100.00,ESE,115,1.0,4.0,72,0.00,,,0.00,105.000000,,2013-06-04 15:02:00,
2013-06-04 10:22:00,53.0,39.0,-100.00,NNE,14,2.0,5.0,59,0.00,,,0.00,192.000000,,2013-06-04 15:22:00,
2013-06-04 10:33:00,53.0,39.0,-100.00,NNE,14,2.0,5.0,59,0.00,,,0.00,192.000000,,2013-06-04 15:33:00,
2013-06-04 10:42:00,53.0,39.0,-100.00,NNE,14,2.0,5.0,59,0.00,,,0.00,192.000000,,2013-06-04 15:42:00,
2013-06-04 10:53:00,53.0,39.0,-100.00,NNE,14,2.0,5.0,59,0.00,,,0.00,192.000000,,2013-06-04 15:53:00,
2013-06-04 11:03:00,53.0,39.0,-100.00,NNE,14,2.0,5.0,59,0.00,,,0.00,192.000000,,2013-06-04 16:03:00,
2013-06-04 11:23:00,56.0,35.0,-100.00,NE,50,4.0,6.0,45,0.00,,,0.00,216.000000,,2013-06-04 16:23:00,
2013-06-04 11:33:00,56.0,35.0,-100.00,NE,50,4.0,6.0,45,0.00,,,0.00,216.000000,,2013-06-04 16:33:00,
2013-06-04 11:42:00,56.0,35.0,-100.00,NE,50,4.0,6.0,45,0.00,,,0.00,216.000000,,2013-06-04 16:42:00,
2013-06-04 11:53:00,56.0,35.0,-100.00,NE,50,4.0,6.0,45,0.00,,,0.00,216.000000,,2013-06-04 16:53:00,
2013-06-04 12:02:00,56.0,35.0,-100.00,NE,50,4.0,6.0,45,0.00,,,0.00,216.000000,,2013-06-04 17:02:00,
2013-06-04 12:23:00,58.0,36.0,-100.00,ENE,65,4.0,6.0,43,0.00,,,0.00,199.000000,,2013-06-04 17:23:00,
2013-06-04 12:33:00,58.0,36.0,-100.00,ENE,65,4.0,6.0,43,0.00,,,0.00,199.000000,,2013-06-04 17:33:00,
2013-06-04 12:42:00,58.0,36.0,-100.00,ENE,65,4.0,6.0,43,0.00,,,0.00,199.000000,,2013-06-04 17:42:00,
2013-06-04 12:52:00,58.0,36.0,-100.00,ENE,65,4.0,6.0,43,0.00,,,0.00,199.000000,,2013-06-04 17:52:00,
2013-06-04 13:02:00,58.0,36.0,-100.00,ENE,65,4.0,6.0,43,0.00,,,0.00,199.000000,,2013-06-04 18:02:00,
2013-06-04 13:22:00,60.0,33.0,-100.00,ESE,102,7.0,11.0,36,0.00,,,0.00,212.000000,,2013-06-04 18:22:00,
2013-06-04 13:32:00,60.0,33.0,-100.00,ESE,102,7.0,11.0,36,0.00,,,0.00,212.000000,,2013-06-04 18:32:00,
2013-06-04 13:42:00,60.0,33.0,-100.00,ESE,102,7.0,11.0,36,0.00,,,0.00,212.000000,,2013-06-04 18:42:00,
2013-06-04 13:53:00,60.0,33.0,-100.00,ESE,102,7.0,11.0,36,0.00,,,0.00,212.000000,,2013-06-04 18:53:00,
2013-06-04 14:02:00,60.0,33.0,-100.00,ESE,102,7.0,11.0,36,0.00,,,0.00,212.000000,,2013-06-04 19:02:00,
2013-06-04 14:22:00,61.0,29.0,-100.00,ESE,102,5.0,10.0,30,0.00,,,0.00,248.000000,,2013-06-04 19:22:00,
2013-06-04 14:33:00,61.0,29.0,-100.00,ESE,102,5.0,10.0,30,0.00,,,0.00,248.000000,,2013-06-04 19:33:00,
2013-06-04 14:42:00,61.0,29.0,-100.00,ESE,102,5.0,10.0,30,0.00,,,0.00,248.000000,,2013-06-04 19:42:00,
2013-06-04 14:52:00,61.0,29.0,-100.00,ESE,102,5.0,10.0,30,0.00,,,0.00,248.000000,,2013-06-04 19:52:00,
2013-06-04 15:02:00,61.0,29.0,-100.00,ESE,102,5.0,10.0,30,0.00,,,0.00,248.000000,,2013-06-04 20:02:00,
2013-06-04 15:22:00,63.0,28.0,-100.00,ESE,114,8.0,16.0,26,0.00,,,0.00,336.000000,,2013-06-04 20:22:00,
2013-06-04 15:32:00,63.0,28.0,-100.00,ESE,114,8.0,16.0,26,0.00,,,0.00,336.000000,,2013-06-04 20:32:00,
2013-06-04 15:42:00,63.0,28.0,-100.00,ESE,114,8.0,16.0,26,0.00,,,0.00,336.000000,,2013-06-04 20:42:00,
2013-06-04 15:53:00,63.0,28.0,-100.00,ESE,114,8.0,16.0,26,0.00,,,0.00,336.000000,,2013-06-04 20:53:00,
2013-06-04 16:02:00,63.0,28.0,-100.00,ESE,114,8.0,16.0,26,0.00,,,0.00,336.000000,,2013-06-04 21:02:00,
2013-06-04 16:22:00,63.0,25.0,-100.00,ESE,116,10.0,16.0,23,0.00,,,0.00,411.000000,,2013-06-04 21:22:00,
2013-06-04 16:33:00,63.0,25.0,-100.00,ESE,116,10.0,16.0,23,0.00,,,0.00,411.000000,,2013-06-04 21:33:00,
2013-06-04 16:42:00,63.0,25.0,-100.00,ESE,116,10.0,16.0,23,0.00,,,0.00,411.000000,,2013-06-04 21:42:00,
2013-06-04 16:53:00,63.0,25.0,-100.00,ESE,116,10.0,16.0,23,0.00,,,0.00,411.000000,,2013-06-04 21:53:00,
2013-06-04 17:02:00,63.0,25.0,-100.00,ESE,116,10.0,16.0,23,0.00,,,0.00,411.000000,,2013-06-04 22:02:00,
2013-06-04 17:22:00,63.0,22.0,-100.00,East,98,8.0,14.0,21,0.00,,,0.00,312.000000,,2013-06-04 22:22:00,
2013-06-04 17:33:00,63.0,22.0,-100.00,East,98,8.0,14.0,21,0.00,,,0.00,312.000000,,2013-06-04 22:33:00,
2013-06-04 17:42:00,63.0,22.0,-100.00,East,98,8.0,14.0,21,0.00,,,0.00,312.000000,,2013-06-04 22:42:00,
2013-06-04 17:52:00,63.0,22.0,-100.00,East,98,8.0,14.0,21,0.00,,,0.00,312.000000,,2013-06-04 22:52:00,
2013-06-04 18:02:00,63.0,22.0,-100.00,East,98,8.0,14.0,21,0.00,,,0.00,312.000000,,2013-06-04 23:02:00,
2013-06-04 18:22:00,63.0,22.0,-100.00,East,92,8.0,14.0,21,0.00,,,0.00,203.000000,,2013-06-04 23:22:00,
2013-06-04 18:32:00,63.0,22.0,-100.00,East,92,8.0,14.0,21,0.00,,,0.00,203.000000,,2013-06-04 23:32:00,
2013-06-04 18:42:00,63.0,22.0,-100.00,East,92,8.0,14.0,21,0.00,,,0.00,203.000000,,2013-06-04 23:42:00,
2013-06-04 18:52:00,63.0,22.0,-100.00,East,92,8.0,14.0,21,0.00,,,0.00,203.000000,,2013-06-04 23:52:00,
2013-06-04 19:02:00,63.0,22.0,-100.00,East,92,8.0,14.0,21,0.00,,,0.00,203.000000,,2013-06-05 00:02:00,
2013-06-04 19:22:00,62.0,24.0,-100.00,East,97,7.0,13.0,23,0.00,,,0.00,158.000000,,2013-06-05 00:22:00,
2013-06-04 19:33:00,62.0,24.0,-100.00,East,97,7.0,13.0,23,0.00,,,0.00,158.000000,,2013-06-05 00:33:00,
2013-06-04 19:42:00,62.0,24.0,-100.00,East,97,7.0,13.0,23,0.00,,,0.00,158.000000,,2013-06-05 00:42:00,
2013-06-04 19:52:00,62.0,24.0,-100.00,East,97,7.0,13.0,23,0.00,,,0.00,158.000000,,2013-06-05 00:52:00,
2013-06-04 20:02:00,62.0,24.0,-100.00,East,97,7.0,13.0,23,0.00,,,0.00,158.000000,,2013-06-05 01:02:00,
2013-06-04 20:22:00,60.0,23.0,-100.00,East,99,7.0,15.0,24,0.00,,,0.00,75.000000,,2013-06-05 01:22:00,
2013-06-04 20:32:00,60.0,23.0,-100.00,East,99,7.0,15.0,24,0.00,,,0.00,75.000000,,2013-06-05 01:32:00,
2013-06-04 20:42:00,60.0,23.0,-100.00,East,99,7.0,15.0,24,0.00,,,0.00,75.000000,,2013-06-05 01:42:00,
2013-06-04 20:52:00,60.0,23.0,-100.00,East,99,7.0,15.0,24,0.00,,,0.00,75.000000,,2013-06-05 01:52:00,
2013-06-04 21:02:00,60.0,23.0,-100.00,East,99,7.0,15.0,24,0.00,,,0.00,75.000000,,2013-06-05 02:02:00,
2013-06-04 21:22:00,56.0,21.0,-100.00,ESE,117,5.0,12.0,25,0.00,,,0.00,12.000000,,2013-06-05 02:22:00,
2013-06-04 21:32:00,56.0,21.0,-100.00,ESE,117,5.0,12.0,25,0.00,,,0.00,12.000000,,2013-06-05 02:32:00,
2013-06-04 21:42:00,56.0,21.0,-100.00,ESE,117,5.0,12.0,25,0.00,,,0.00,12.000000,,2013-06-05 02:42:00,
2013-06-04 21:52:00,56.0,21.0,-100.00,ESE,117,5.0,12.0,25,0.00,,,0.00,12.000000,,2013-06-05 02:52:00,
2013-06-04 22:02:00,56.0,21.0,-100.00,ESE,117,5.0,12.0,25,0.00,,,0.00,12.000000,,2013-06-05 03:02:00,
2013-06-04 22:33:00,53.0,24.0,-100.00,SSE,159,5.0,9.0,32,0.00,,,0.00,0.000000,,2013-06-05 03:33:00,
2013-06-04 22:43:00,53.0,24.0,-100.00,SSE,159,5.0,9.0,32,0.00,,,0.00,0.000000,,2013-06-05 03:43:00,
2013-06-04 22:53:00,53.0,24.0,-100.00,SSE,159,5.0,9.0,32,0.00,,,0.00,0.000000,,2013-06-05 03:53:00,
2013-06-04 23:02:00,53.0,24.0,-100.00,SSE,159,5.0,9.0,32,0.00,,,0.00,0.000000,,2013-06-05 04:02:00,
2013-06-04 23:23:00,51.0,25.0,-100.00,SE,135,4.0,10.0,36,0.00,,,0.00,0.000000,,2013-06-05 04:23:00,
2013-06-04 23:33:00,51.0,25.0,-100.00,SE,135,4.0,10.0,36,0.00,,,0.00,0.000000,,2013-06-05 04:33:00,
2013-06-04 23:42:00,51.0,25.0,-100.00,SE,135,4.0,10.0,36,0.00,,,0.00,0.000000,,2013-06-05 04:42:00,
2013-06-04 23:53:00,51.0,25.0,-100.00,SE,135,4.0,10.0,36,0.00,,,0.00,0.000000,,2013-06-05 04:53:00,